sensor_id;sensor_type;location;lat;lon;timestamp;temperature;humidity
8591;DHT22;4333;48.322;14.340;2024-03-08T00:00:30;3.70;99.90
8591;DHT22;4333;48.322;14.340;2024-03-08T00:03:00;3.60;99.90
8591;DHT22;4333;48.322;14.340;2024-03-08T00:05:32;3.60;99.90
8591;DHT22;4333;48.322;14.340;2024-03-08T00:07:58;3.60;99.90
8591;DHT22;4333;48.322;14.340;2024-03-08T00:10:27;3.60;99.90
8591;DHT22;4333;48.322;14.340;2024-03-08T00:12:57;3.60;99.90
8591;DHT22;4333;48.322;14.340;2024-03-08T00:15:28;3.60;99.90
8591;DHT22;4333;48.322;14.340;2024-03-08T00:17:55;3.50;99.90
8591;DHT22;4333;48.322;14.340;2024-03-08T00:20:20;3.50;99.90
8591;DHT22;4333;48.322;14.340;2024-03-08T00:22:49;3.50;99.90
8591;DHT22;4333;48.322;14.340;2024-03-08T00:25:20;3.50;99.90
8591;DHT22;4333;48.322;14.340;2024-03-08T00:27:45;3.50;99.90
8591;DHT22;4333;48.322;14.340;2024-03-08T00:30:17;3.40;99.90
8591;DHT22;4333;48.322;14.340;2024-03-08T00:32:43;3.40;99.90
8591;DHT22;4333;48.322;14.340;2024-03-08T00:35:11;3.40;99.90
8591;DHT22;4333;48.322;14.340;2024-03-08T00:37:39;3.40;99.90
8591;DHT22;4333;48.322;14.340;2024-03-08T00:40:08;3.30;99.90
8591;DHT22;4333;48.322;14.340;2024-03-08T00:42:39;3.30;99.90
8591;DHT22;4333;48.322;14.340;2024-03-08T00:45:10;3.30;99.90
8591;DHT22;4333;48.322;14.340;2024-03-08T00:47:38;3.40;99.90
8591;DHT22;4333;48.322;14.340;2024-03-08T00:50:04;3.30;99.90
8591;DHT22;4333;48.322;14.340;2024-03-08T00:52:30;3.30;99.90
8591;DHT22;4333;48.322;14.340;2024-03-08T00:54:56;3.30;99.90
8591;DHT22;4333;48.322;14.340;2024-03-08T00:57:24;3.30;99.90
8591;DHT22;4333;48.322;14.340;2024-03-08T00:59:56;3.30;99.90
8591;DHT22;4333;48.322;14.340;2024-03-08T01:02:24;3.20;99.90
8591;DHT22;4333;48.322;14.340;2024-03-08T01:04:53;3.20;99.90
8591;DHT22;4333;48.322;14.340;2024-03-08T01:07:22;3.10;99.90
8591;DHT22;4333;48.322;14.340;2024-03-08T01:09:50;3.00;99.90
8591;DHT22;4333;48.322;14.340;2024-03-08T01:12:16;3.00;99.90
8591;DHT22;4333;48.322;14.340;2024-03-08T01:14:46;2.90;99.90
8591;DHT22;4333;48.322;14.340;2024-03-08T01:17:12;2.80;99.90
8591;DHT22;4333;48.322;14.340;2024-03-08T01:19:38;2.80;99.90
8591;DHT22;4333;48.322;14.340;2024-03-08T01:22:06;2.70;99.90
8591;DHT22;4333;48.322;14.340;2024-03-08T01:24:35;2.70;99.90
8591;DHT22;4333;48.322;14.340;2024-03-08T01:27:01;2.50;99.90
8591;DHT22;4333;48.322;14.340;2024-03-08T01:29:28;2.50;99.90
8591;DHT22;4333;48.322;14.340;2024-03-08T01:31:58;2.50;99.90
8591;DHT22;4333;48.322;14.340;2024-03-08T01:34:27;2.40;99.90
8591;DHT22;4333;48.322;14.340;2024-03-08T01:36:54;2.40;99.90
8591;DHT22;4333;48.322;14.340;2024-03-08T01:39:23;2.30;99.90
8591;DHT22;4333;48.322;14.340;2024-03-08T01:41:51;2.30;99.90
8591;DHT22;4333;48.322;14.340;2024-03-08T01:44:26;2.20;99.90
8591;DHT22;4333;48.322;14.340;2024-03-08T01:46:52;2.20;99.90
8591;DHT22;4333;48.322;14.340;2024-03-08T01:49:20;2.10;99.90
8591;DHT22;4333;48.322;14.340;2024-03-08T01:51:53;2.00;99.90
8591;DHT22;4333;48.322;14.340;2024-03-08T01:54:25;2.00;99.90
8591;DHT22;4333;48.322;14.340;2024-03-08T01:56:52;2.00;99.90
8591;DHT22;4333;48.322;14.340;2024-03-08T01:59:20;1.90;99.90
8591;DHT22;4333;48.322;14.340;2024-03-08T02:01:49;1.90;99.90
8591;DHT22;4333;48.322;14.340;2024-03-08T02:04:17;1.80;99.90
8591;DHT22;4333;48.322;14.340;2024-03-08T02:06:43;1.80;99.90
8591;DHT22;4333;48.322;14.340;2024-03-08T02:09:13;1.70;99.90
8591;DHT22;4333;48.322;14.340;2024-03-08T02:11:46;1.70;99.90
8591;DHT22;4333;48.322;14.340;2024-03-08T02:14:12;1.60;99.90
8591;DHT22;4333;48.322;14.340;2024-03-08T02:16:40;1.60;99.90
8591;DHT22;4333;48.322;14.340;2024-03-08T02:19:12;1.50;99.90
8591;DHT22;4333;48.322;14.340;2024-03-08T02:21:38;1.50;99.90
8591;DHT22;4333;48.322;14.340;2024-03-08T02:24:07;1.50;99.90
8591;DHT22;4333;48.322;14.340;2024-03-08T02:26:38;1.40;99.90
8591;DHT22;4333;48.322;14.340;2024-03-08T02:29:04;1.40;99.90
8591;DHT22;4333;48.322;14.340;2024-03-08T02:31:30;1.40;99.90
8591;DHT22;4333;48.322;14.340;2024-03-08T02:33:59;1.20;99.90
8591;DHT22;4333;48.322;14.340;2024-03-08T02:36:25;1.30;99.90
8591;DHT22;4333;48.322;14.340;2024-03-08T02:38:54;1.20;99.90
8591;DHT22;4333;48.322;14.340;2024-03-08T02:41:25;1.20;99.90
8591;DHT22;4333;48.322;14.340;2024-03-08T02:43:56;1.10;99.90
8591;DHT22;4333;48.322;14.340;2024-03-08T02:46:21;1.10;99.90
8591;DHT22;4333;48.322;14.340;2024-03-08T02:48:47;1.10;99.90
8591;DHT22;4333;48.322;14.340;2024-03-08T02:51:16;1.10;99.90
8591;DHT22;4333;48.322;14.340;2024-03-08T02:53:55;1.10;99.90
8591;DHT22;4333;48.322;14.340;2024-03-08T02:56:23;1.10;99.90
8591;DHT22;4333;48.322;14.340;2024-03-08T02:58:52;1.10;99.90
8591;DHT22;4333;48.322;14.340;2024-03-08T03:01:20;1.00;99.90
8591;DHT22;4333;48.322;14.340;2024-03-08T03:03:49;1.00;99.90
8591;DHT22;4333;48.322;14.340;2024-03-08T03:06:16;1.00;99.90
8591;DHT22;4333;48.322;14.340;2024-03-08T03:08:49;1.00;99.90
8591;DHT22;4333;48.322;14.340;2024-03-08T03:11:21;1.00;99.90
8591;DHT22;4333;48.322;14.340;2024-03-08T03:13:54;0.90;99.90
8591;DHT22;4333;48.322;14.340;2024-03-08T03:16:23;0.90;99.90
8591;DHT22;4333;48.322;14.340;2024-03-08T03:18:54;0.80;99.90
8591;DHT22;4333;48.322;14.340;2024-03-08T03:21:22;0.80;99.90
8591;DHT22;4333;48.322;14.340;2024-03-08T03:23:48;0.70;99.90
8591;DHT22;4333;48.322;14.340;2024-03-08T03:26:36;0.70;99.90
8591;DHT22;4333;48.322;14.340;2024-03-08T03:29:05;0.60;99.90
8591;DHT22;4333;48.322;14.340;2024-03-08T03:31:36;0.70;99.90
8591;DHT22;4333;48.322;14.340;2024-03-08T03:34:02;0.70;99.90
8591;DHT22;4333;48.322;14.340;2024-03-08T03:36:32;0.70;99.90
8591;DHT22;4333;48.322;14.340;2024-03-08T03:39:01;0.60;99.90
8591;DHT22;4333;48.322;14.340;2024-03-08T03:41:38;0.50;99.90
8591;DHT22;4333;48.322;14.340;2024-03-08T03:44:14;0.60;99.90
8591;DHT22;4333;48.322;14.340;2024-03-08T03:46:46;0.60;99.90
8591;DHT22;4333;48.322;14.340;2024-03-08T03:49:12;0.60;99.90
8591;DHT22;4333;48.322;14.340;2024-03-08T03:51:41;0.60;99.90
8591;DHT22;4333;48.322;14.340;2024-03-08T03:54:16;0.60;99.90
8591;DHT22;4333;48.322;14.340;2024-03-08T03:56:42;0.60;99.90
8591;DHT22;4333;48.322;14.340;2024-03-08T03:59:11;0.60;99.90
8591;DHT22;4333;48.322;14.340;2024-03-08T04:01:46;0.60;99.90
8591;DHT22;4333;48.322;14.340;2024-03-08T04:04:18;0.60;99.90
8591;DHT22;4333;48.322;14.340;2024-03-08T04:06:46;0.50;99.90
8591;DHT22;4333;48.322;14.340;2024-03-08T04:09:15;0.50;99.90
8591;DHT22;4333;48.322;14.340;2024-03-08T04:11:45;0.50;99.90
8591;DHT22;4333;48.322;14.340;2024-03-08T04:14:26;0.40;99.90
8591;DHT22;4333;48.322;14.340;2024-03-08T04:16:55;0.50;99.90
8591;DHT22;4333;48.322;14.340;2024-03-08T04:19:20;0.40;99.90
8591;DHT22;4333;48.322;14.340;2024-03-08T04:21:49;0.40;99.90
8591;DHT22;4333;48.322;14.340;2024-03-08T04:24:15;0.40;99.90
8591;DHT22;4333;48.322;14.340;2024-03-08T04:26:42;0.40;99.90
8591;DHT22;4333;48.322;14.340;2024-03-08T04:29:09;0.40;99.90
8591;DHT22;4333;48.322;14.340;2024-03-08T04:31:40;0.50;99.90
8591;DHT22;4333;48.322;14.340;2024-03-08T04:34:08;0.50;99.90
8591;DHT22;4333;48.322;14.340;2024-03-08T04:36:38;0.50;99.90
8591;DHT22;4333;48.322;14.340;2024-03-08T04:39:07;0.60;99.90
8591;DHT22;4333;48.322;14.340;2024-03-08T04:41:40;0.60;99.90
8591;DHT22;4333;48.322;14.340;2024-03-08T04:44:14;0.70;99.90
8591;DHT22;4333;48.322;14.340;2024-03-08T04:46:43;0.70;99.90
8591;DHT22;4333;48.322;14.340;2024-03-08T04:49:12;0.70;99.90
8591;DHT22;4333;48.322;14.340;2024-03-08T04:51:41;0.70;99.90
8591;DHT22;4333;48.322;14.340;2024-03-08T04:54:10;0.80;99.90
8591;DHT22;4333;48.322;14.340;2024-03-08T04:56:36;0.80;99.90
8591;DHT22;4333;48.322;14.340;2024-03-08T04:59:04;0.80;99.90
8591;DHT22;4333;48.322;14.340;2024-03-08T05:01:33;1.00;99.90
8591;DHT22;4333;48.322;14.340;2024-03-08T05:04:03;1.00;99.90
8591;DHT22;4333;48.322;14.340;2024-03-08T05:06:35;1.00;99.90
8591;DHT22;4333;48.322;14.340;2024-03-08T05:09:02;1.00;99.90
8591;DHT22;4333;48.322;14.340;2024-03-08T05:11:40;1.00;99.90
8591;DHT22;4333;48.322;14.340;2024-03-08T05:14:06;1.00;99.90
8591;DHT22;4333;48.322;14.340;2024-03-08T05:16:31;1.00;99.90
8591;DHT22;4333;48.322;14.340;2024-03-08T05:18:57;1.00;99.90
8591;DHT22;4333;48.322;14.340;2024-03-08T05:21:26;0.90;99.90
8591;DHT22;4333;48.322;14.340;2024-03-08T05:24:02;0.90;99.90
8591;DHT22;4333;48.322;14.340;2024-03-08T05:26:33;0.80;99.90
8591;DHT22;4333;48.322;14.340;2024-03-08T05:29:05;0.80;99.90
8591;DHT22;4333;48.322;14.340;2024-03-08T05:31:46;0.80;99.90
8591;DHT22;4333;48.322;14.340;2024-03-08T05:34:12;0.80;99.90
8591;DHT22;4333;48.322;14.340;2024-03-08T05:36:41;0.80;99.90
8591;DHT22;4333;48.322;14.340;2024-03-08T05:39:15;0.70;99.90
8591;DHT22;4333;48.322;14.340;2024-03-08T05:41:46;0.70;99.90
8591;DHT22;4333;48.322;14.340;2024-03-08T05:44:19;0.70;99.90
8591;DHT22;4333;48.322;14.340;2024-03-08T05:46:45;0.60;99.90
8591;DHT22;4333;48.322;14.340;2024-03-08T05:49:22;0.70;99.90
8591;DHT22;4333;48.322;14.340;2024-03-08T05:51:50;0.60;99.90
8591;DHT22;4333;48.322;14.340;2024-03-08T05:54:19;0.60;99.90
8591;DHT22;4333;48.322;14.340;2024-03-08T05:56:48;0.60;99.90
8591;DHT22;4333;48.322;14.340;2024-03-08T05:59:16;0.60;99.90
8591;DHT22;4333;48.322;14.340;2024-03-08T06:01:46;0.70;99.90
8591;DHT22;4333;48.322;14.340;2024-03-08T06:04:14;0.70;99.90
8591;DHT22;4333;48.322;14.340;2024-03-08T06:06:43;0.60;99.90
8591;DHT22;4333;48.322;14.340;2024-03-08T06:09:11;0.70;99.90
8591;DHT22;4333;48.322;14.340;2024-03-08T06:11:41;0.70;99.90
8591;DHT22;4333;48.322;14.340;2024-03-08T06:14:11;0.70;99.90
8591;DHT22;4333;48.322;14.340;2024-03-08T06:16:40;0.70;99.90
8591;DHT22;4333;48.322;14.340;2024-03-08T06:19:08;0.80;99.90
8591;DHT22;4333;48.322;14.340;2024-03-08T06:21:34;0.90;99.90
8591;DHT22;4333;48.322;14.340;2024-03-08T06:24:00;0.90;99.90
8591;DHT22;4333;48.322;14.340;2024-03-08T06:26:33;1.00;99.90
8591;DHT22;4333;48.322;14.340;2024-03-08T06:29:03;1.00;99.90
8591;DHT22;4333;48.322;14.340;2024-03-08T06:31:32;1.00;99.90
8591;DHT22;4333;48.322;14.340;2024-03-08T06:34:07;1.10;99.90
8591;DHT22;4333;48.322;14.340;2024-03-08T06:36:33;1.10;99.90
8591;DHT22;4333;48.322;14.340;2024-03-08T06:39:00;1.10;99.90
8591;DHT22;4333;48.322;14.340;2024-03-08T06:41:29;1.10;99.90
8591;DHT22;4333;48.322;14.340;2024-03-08T06:43:54;1.10;99.90
8591;DHT22;4333;48.322;14.340;2024-03-08T06:46:25;1.20;99.90
8591;DHT22;4333;48.322;14.340;2024-03-08T06:48:56;1.20;99.90
8591;DHT22;4333;48.322;14.340;2024-03-08T06:51:22;1.30;99.90
8591;DHT22;4333;48.322;14.340;2024-03-08T06:53:49;1.50;99.90
8591;DHT22;4333;48.322;14.340;2024-03-08T06:56:15;1.80;99.90
8591;DHT22;4333;48.322;14.340;2024-03-08T06:58:43;2.20;99.90
8591;DHT22;4333;48.322;14.340;2024-03-08T07:01:10;2.50;99.90
8591;DHT22;4333;48.322;14.340;2024-03-08T07:03:42;3.30;99.90
8591;DHT22;4333;48.322;14.340;2024-03-08T07:06:13;4.20;99.90
8591;DHT22;4333;48.322;14.340;2024-03-08T07:08:43;5.10;82.70
8591;DHT22;4333;48.322;14.340;2024-03-08T07:11:14;6.10;65.00
8591;DHT22;4333;48.322;14.340;2024-03-08T07:13:47;6.70;48.70
8591;DHT22;4333;48.322;14.340;2024-03-08T07:16:13;7.40;34.90
8591;DHT22;4333;48.322;14.340;2024-03-08T07:18:41;7.20;25.50
8591;DHT22;4333;48.322;14.340;2024-03-08T07:21:09;6.70;29.20
8591;DHT22;4333;48.322;14.340;2024-03-08T07:23:40;6.50;28.70
8591;DHT22;4333;48.322;14.340;2024-03-08T07:26:20;6.70;35.60
8591;DHT22;4333;48.322;14.340;2024-03-08T07:28:49;7.30;28.20
8591;DHT22;4333;48.322;14.340;2024-03-08T07:31:22;7.60;25.60
8591;DHT22;4333;48.322;14.340;2024-03-08T07:33:53;8.60;20.70
8591;DHT22;4333;48.322;14.340;2024-03-08T07:36:22;9.70;5.60
8591;DHT22;4333;48.322;14.340;2024-03-08T07:38:51;10.00;3.70
8591;DHT22;4333;48.322;14.340;2024-03-08T07:41:20;10.60;1.00
8591;DHT22;4333;48.322;14.340;2024-03-08T07:43:50;9.80;1.00
8591;DHT22;4333;48.322;14.340;2024-03-08T07:46:18;9.70;1.00
8591;DHT22;4333;48.322;14.340;2024-03-08T07:48:46;9.20;1.00
8591;DHT22;4333;48.322;14.340;2024-03-08T07:51:18;10.00;1.00
8591;DHT22;4333;48.322;14.340;2024-03-08T07:53:47;9.80;1.00
8591;DHT22;4333;48.322;14.340;2024-03-08T07:56:15;9.70;1.00
8591;DHT22;4333;48.322;14.340;2024-03-08T07:58:44;10.30;1.00
8591;DHT22;4333;48.322;14.340;2024-03-08T08:01:21;9.80;1.00
8591;DHT22;4333;48.322;14.340;2024-03-08T08:03:53;9.10;1.00
8591;DHT22;4333;48.322;14.340;2024-03-08T08:06:22;9.50;1.00
8591;DHT22;4333;48.322;14.340;2024-03-08T08:08:58;9.20;1.00
8591;DHT22;4333;48.322;14.340;2024-03-08T08:11:27;8.90;1.00
8591;DHT22;4333;48.322;14.340;2024-03-08T08:13:56;9.40;1.00
8591;DHT22;4333;48.322;14.340;2024-03-08T08:16:25;9.30;1.00
8591;DHT22;4333;48.322;14.340;2024-03-08T08:18:54;9.20;1.00
8591;DHT22;4333;48.322;14.340;2024-03-08T08:21:22;9.20;1.00
8591;DHT22;4333;48.322;14.340;2024-03-08T08:23:50;9.20;1.00
8591;DHT22;4333;48.322;14.340;2024-03-08T08:26:18;9.50;1.00
8591;DHT22;4333;48.322;14.340;2024-03-08T08:28:44;9.00;1.00
8591;DHT22;4333;48.322;14.340;2024-03-08T08:31:14;9.20;1.00
8591;DHT22;4333;48.322;14.340;2024-03-08T08:33:42;9.30;1.00
8591;DHT22;4333;48.322;14.340;2024-03-08T08:36:16;9.40;1.00
8591;DHT22;4333;48.322;14.340;2024-03-08T08:38:42;9.10;1.00
8591;DHT22;4333;48.322;14.340;2024-03-08T08:41:13;9.10;1.00
8591;DHT22;4333;48.322;14.340;2024-03-08T08:43:39;9.30;1.00
8591;DHT22;4333;48.322;14.340;2024-03-08T08:46:05;9.20;1.00
8591;DHT22;4333;48.322;14.340;2024-03-08T08:48:37;9.50;1.00
8591;DHT22;4333;48.322;14.340;2024-03-08T08:51:09;10.20;1.00
8591;DHT22;4333;48.322;14.340;2024-03-08T08:53:38;10.50;1.00
8591;DHT22;4333;48.322;14.340;2024-03-08T08:56:06;11.20;1.00
8591;DHT22;4333;48.322;14.340;2024-03-08T08:58:34;11.70;1.00
8591;DHT22;4333;48.322;14.340;2024-03-08T09:01:00;11.50;1.00
8591;DHT22;4333;48.322;14.340;2024-03-08T09:03:30;11.60;1.00
8591;DHT22;4333;48.322;14.340;2024-03-08T09:05:56;11.10;1.00
8591;DHT22;4333;48.322;14.340;2024-03-08T09:08:25;11.20;1.00
8591;DHT22;4333;48.322;14.340;2024-03-08T09:10:50;11.10;1.00
8591;DHT22;4333;48.322;14.340;2024-03-08T09:13:16;10.40;1.00
8591;DHT22;4333;48.322;14.340;2024-03-08T09:15:45;9.50;1.00
8591;DHT22;4333;48.322;14.340;2024-03-08T09:18:13;9.50;1.00
8591;DHT22;4333;48.322;14.340;2024-03-08T09:20:39;9.10;1.00
8591;DHT22;4333;48.322;14.340;2024-03-08T09:23:07;9.20;1.00
8591;DHT22;4333;48.322;14.340;2024-03-08T09:25:37;9.40;1.00
8591;DHT22;4333;48.322;14.340;2024-03-08T09:28:09;10.00;1.00
8591;DHT22;4333;48.322;14.340;2024-03-08T09:30:38;10.10;1.00
8591;DHT22;4333;48.322;14.340;2024-03-08T09:33:04;9.70;1.00
8591;DHT22;4333;48.322;14.340;2024-03-08T09:35:33;9.70;1.00
8591;DHT22;4333;48.322;14.340;2024-03-08T09:38:04;9.90;1.00
8591;DHT22;4333;48.322;14.340;2024-03-08T09:40:36;10.10;1.00
8591;DHT22;4333;48.322;14.340;2024-03-08T09:43:07;10.00;1.00
8591;DHT22;4333;48.322;14.340;2024-03-08T09:45:37;9.70;1.00
8591;DHT22;4333;48.322;14.340;2024-03-08T09:48:10;10.30;1.00
8591;DHT22;4333;48.322;14.340;2024-03-08T09:50:42;10.10;1.00
8591;DHT22;4333;48.322;14.340;2024-03-08T09:53:12;9.80;1.00
8591;DHT22;4333;48.322;14.340;2024-03-08T09:55:41;9.40;1.00
8591;DHT22;4333;48.322;14.340;2024-03-08T09:58:17;8.90;1.00
8591;DHT22;4333;48.322;14.340;2024-03-08T10:01:00;9.20;1.00
8591;DHT22;4333;48.322;14.340;2024-03-08T10:03:32;9.20;1.00
8591;DHT22;4333;48.322;14.340;2024-03-08T10:06:06;9.10;1.00
8591;DHT22;4333;48.322;14.340;2024-03-08T10:08:39;9.30;1.00
8591;DHT22;4333;48.322;14.340;2024-03-08T10:11:10;9.10;1.00
8591;DHT22;4333;48.322;14.340;2024-03-08T10:13:39;8.90;1.00
8591;DHT22;4333;48.322;14.340;2024-03-08T10:16:06;9.10;1.00
8591;DHT22;4333;48.322;14.340;2024-03-08T10:18:37;9.10;1.00
8591;DHT22;4333;48.322;14.340;2024-03-08T10:21:07;9.00;1.00
8591;DHT22;4333;48.322;14.340;2024-03-08T10:23:39;9.00;1.00
8591;DHT22;4333;48.322;14.340;2024-03-08T10:26:15;9.10;1.00
8591;DHT22;4333;48.322;14.340;2024-03-08T10:28:53;9.00;1.00
8591;DHT22;4333;48.322;14.340;2024-03-08T10:31:21;9.30;1.00
8591;DHT22;4333;48.322;14.340;2024-03-08T10:33:48;9.50;1.00
8591;DHT22;4333;48.322;14.340;2024-03-08T10:36:17;9.50;1.00
8591;DHT22;4333;48.322;14.340;2024-03-08T10:38:45;9.90;1.00
8591;DHT22;4333;48.322;14.340;2024-03-08T10:41:15;9.90;1.00
8591;DHT22;4333;48.322;14.340;2024-03-08T10:49:25;10.10;1.00
8591;DHT22;4333;48.322;14.340;2024-03-08T10:51:54;10.20;1.00
8591;DHT22;4333;48.322;14.340;2024-03-08T10:54:25;10.30;1.00
8591;DHT22;4333;48.322;14.340;2024-03-08T10:56:54;10.20;1.00
8591;DHT22;4333;48.322;14.340;2024-03-08T10:59:21;9.90;1.00
8591;DHT22;4333;48.322;14.340;2024-03-08T11:01:55;9.70;1.00
8591;DHT22;4333;48.322;14.340;2024-03-08T11:04:21;9.90;1.00
8591;DHT22;4333;48.322;14.340;2024-03-08T11:06:53;9.90;1.00
8591;DHT22;4333;48.322;14.340;2024-03-08T11:09:35;10.30;1.00
8591;DHT22;4333;48.322;14.340;2024-03-08T11:14:51;10.30;1.00
8591;DHT22;4333;48.322;14.340;2024-03-08T11:20:00;9.80;1.00
8591;DHT22;4333;48.322;14.340;2024-03-08T11:22:33;9.80;1.00
8591;DHT22;4333;48.322;14.340;2024-03-08T11:25:05;10.50;1.00
8591;DHT22;4333;48.322;14.340;2024-03-08T11:27:36;11.00;1.00
8591;DHT22;4333;48.322;14.340;2024-03-08T11:30:06;11.10;1.00
8591;DHT22;4333;48.322;14.340;2024-03-08T11:32:37;10.70;1.00
8591;DHT22;4333;48.322;14.340;2024-03-08T11:35:07;10.90;1.00
8591;DHT22;4333;48.322;14.340;2024-03-08T11:37:45;11.30;1.00
8591;DHT22;4333;48.322;14.340;2024-03-08T11:40:17;11.10;1.00
8591;DHT22;4333;48.322;14.340;2024-03-08T11:42:56;10.90;1.00
8591;DHT22;4333;48.322;14.340;2024-03-08T11:45:24;10.40;1.00
8591;DHT22;4333;48.322;14.340;2024-03-08T11:47:50;11.00;1.00
8591;DHT22;4333;48.322;14.340;2024-03-08T11:50:18;11.00;1.00
8591;DHT22;4333;48.322;14.340;2024-03-08T11:52:51;10.60;1.00
8591;DHT22;4333;48.322;14.340;2024-03-08T11:55:21;10.50;1.00
8591;DHT22;4333;48.322;14.340;2024-03-08T11:57:50;10.60;1.00
8591;DHT22;4333;48.322;14.340;2024-03-08T12:00:21;10.70;1.00
8591;DHT22;4333;48.322;14.340;2024-03-08T12:03:06;10.60;1.00
8591;DHT22;4333;48.322;14.340;2024-03-08T12:05:35;10.90;1.00
8591;DHT22;4333;48.322;14.340;2024-03-08T12:08:53;10.60;1.00
8591;DHT22;4333;48.322;14.340;2024-03-08T12:11:23;10.40;1.00
8591;DHT22;4333;48.322;14.340;2024-03-08T12:13:57;10.30;1.00
8591;DHT22;4333;48.322;14.340;2024-03-08T12:16:29;10.80;1.00
8591;DHT22;4333;48.322;14.340;2024-03-08T12:19:00;11.00;1.00
8591;DHT22;4333;48.322;14.340;2024-03-08T12:21:34;11.00;1.00
8591;DHT22;4333;48.322;14.340;2024-03-08T12:24:07;11.00;1.00
8591;DHT22;4333;48.322;14.340;2024-03-08T12:26:49;11.20;1.00
8591;DHT22;4333;48.322;14.340;2024-03-08T12:35:07;10.80;1.00
8591;DHT22;4333;48.322;14.340;2024-03-08T12:37:42;11.30;1.00
8591;DHT22;4333;48.322;14.340;2024-03-08T12:40:54;11.10;1.00
8591;DHT22;4333;48.322;14.340;2024-03-08T12:43:31;11.00;1.00
8591;DHT22;4333;48.322;14.340;2024-03-08T12:46:00;10.70;1.00
8591;DHT22;4333;48.322;14.340;2024-03-08T12:48:40;10.70;1.00
8591;DHT22;4333;48.322;14.340;2024-03-08T12:51:21;10.80;1.00
8591;DHT22;4333;48.322;14.340;2024-03-08T12:53:48;11.10;1.00
8591;DHT22;4333;48.322;14.340;2024-03-08T12:56:31;11.30;1.00
8591;DHT22;4333;48.322;14.340;2024-03-08T12:59:05;11.30;1.00
8591;DHT22;4333;48.322;14.340;2024-03-08T13:01:38;10.80;1.00
8591;DHT22;4333;48.322;14.340;2024-03-08T13:04:10;10.80;1.00
8591;DHT22;4333;48.322;14.340;2024-03-08T13:06:46;11.10;1.00
8591;DHT22;4333;48.322;14.340;2024-03-08T13:09:17;11.00;1.00
8591;DHT22;4333;48.322;14.340;2024-03-08T13:11:55;10.80;1.00
8591;DHT22;4333;48.322;14.340;2024-03-08T13:14:26;11.00;1.00
8591;DHT22;4333;48.322;14.340;2024-03-08T13:17:04;11.30;1.00
8591;DHT22;4333;48.322;14.340;2024-03-08T13:19:39;11.20;1.00
8591;DHT22;4333;48.322;14.340;2024-03-08T13:22:15;11.00;1.00
8591;DHT22;4333;48.322;14.340;2024-03-08T13:24:51;11.40;1.00
8591;DHT22;4333;48.322;14.340;2024-03-08T13:27:45;11.30;1.00
8591;DHT22;4333;48.322;14.340;2024-03-08T13:30:43;10.90;1.00
8591;DHT22;4333;48.322;14.340;2024-03-08T13:33:31;11.00;1.00
8591;DHT22;4333;48.322;14.340;2024-03-08T13:36:08;10.70;1.00
8591;DHT22;4333;48.322;14.340;2024-03-08T13:38:49;10.80;1.00
8591;DHT22;4333;48.322;14.340;2024-03-08T13:41:18;10.90;1.00
8591;DHT22;4333;48.322;14.340;2024-03-08T13:43:48;10.70;1.00
8591;DHT22;4333;48.322;14.340;2024-03-08T13:46:17;10.90;1.00
8591;DHT22;4333;48.322;14.340;2024-03-08T13:48:43;10.90;1.00
8591;DHT22;4333;48.322;14.340;2024-03-08T13:51:18;11.10;1.00
8591;DHT22;4333;48.322;14.340;2024-03-08T13:53:46;11.10;1.00
8591;DHT22;4333;48.322;14.340;2024-03-08T13:56:17;10.90;1.00
8591;DHT22;4333;48.322;14.340;2024-03-08T13:58:47;10.80;1.00
8591;DHT22;4333;48.322;14.340;2024-03-08T14:01:22;10.90;1.00
8591;DHT22;4333;48.322;14.340;2024-03-08T14:03:48;11.10;1.00
8591;DHT22;4333;48.322;14.340;2024-03-08T14:06:19;11.20;1.00
8591;DHT22;4333;48.322;14.340;2024-03-08T14:08:55;11.00;1.00
8591;DHT22;4333;48.322;14.340;2024-03-08T14:11:26;10.70;1.00
8591;DHT22;4333;48.322;14.340;2024-03-08T14:13:53;10.60;1.00
8591;DHT22;4333;48.322;14.340;2024-03-08T14:16:24;10.70;1.00
8591;DHT22;4333;48.322;14.340;2024-03-08T14:18:53;10.90;1.00
8591;DHT22;4333;48.322;14.340;2024-03-08T14:21:23;10.80;1.00
8591;DHT22;4333;48.322;14.340;2024-03-08T14:23:57;10.90;1.00
8591;DHT22;4333;48.322;14.340;2024-03-08T14:26:23;10.90;1.00
8591;DHT22;4333;48.322;14.340;2024-03-08T14:28:48;10.90;1.00
8591;DHT22;4333;48.322;14.340;2024-03-08T14:31:26;10.70;1.00
8591;DHT22;4333;48.322;14.340;2024-03-08T14:34:04;10.70;1.00
8591;DHT22;4333;48.322;14.340;2024-03-08T14:36:42;10.70;1.00
8591;DHT22;4333;48.322;14.340;2024-03-08T14:39:14;10.70;1.00
8591;DHT22;4333;48.322;14.340;2024-03-08T14:41:47;10.70;1.00
8591;DHT22;4333;48.322;14.340;2024-03-08T14:44:20;10.70;1.00
8591;DHT22;4333;48.322;14.340;2024-03-08T14:46:58;10.90;1.00
8591;DHT22;4333;48.322;14.340;2024-03-08T14:49:30;10.80;1.00
8591;DHT22;4333;48.322;14.340;2024-03-08T14:52:04;11.00;1.00
8591;DHT22;4333;48.322;14.340;2024-03-08T14:54:55;10.80;1.00
8591;DHT22;4333;48.322;14.340;2024-03-08T14:57:39;10.60;1.00
8591;DHT22;4333;48.322;14.340;2024-03-08T15:00:24;10.50;1.00
8591;DHT22;4333;48.322;14.340;2024-03-08T15:02:58;10.50;1.00
8591;DHT22;4333;48.322;14.340;2024-03-08T15:05:26;10.50;1.00
8591;DHT22;4333;48.322;14.340;2024-03-08T15:07:55;10.40;1.00
8591;DHT22;4333;48.322;14.340;2024-03-08T15:10:37;10.60;1.00
8591;DHT22;4333;48.322;14.340;2024-03-08T15:13:21;10.70;1.00
8591;DHT22;4333;48.322;14.340;2024-03-08T15:15:50;10.50;1.00
8591;DHT22;4333;48.322;14.340;2024-03-08T15:18:32;10.60;1.00
8591;DHT22;4333;48.322;14.340;2024-03-08T15:21:04;10.50;1.00
8591;DHT22;4333;48.322;14.340;2024-03-08T15:23:38;10.50;1.00
8591;DHT22;4333;48.322;14.340;2024-03-08T15:26:11;10.70;1.00
8591;DHT22;4333;48.322;14.340;2024-03-08T15:28:40;10.70;1.00
8591;DHT22;4333;48.322;14.340;2024-03-08T15:31:06;10.50;1.00
8591;DHT22;4333;48.322;14.340;2024-03-08T15:33:36;10.50;1.00
8591;DHT22;4333;48.322;14.340;2024-03-08T15:36:18;10.40;1.00
8591;DHT22;4333;48.322;14.340;2024-03-08T15:38:47;10.30;1.00
8591;DHT22;4333;48.322;14.340;2024-03-08T15:41:13;10.40;1.00
8591;DHT22;4333;48.322;14.340;2024-03-08T15:43:42;10.30;1.00
8591;DHT22;4333;48.322;14.340;2024-03-08T15:46:09;10.10;1.00
8591;DHT22;4333;48.322;14.340;2024-03-08T15:48:37;10.20;1.00
8591;DHT22;4333;48.322;14.340;2024-03-08T15:51:04;10.20;1.00
8591;DHT22;4333;48.322;14.340;2024-03-08T15:53:35;10.20;1.00
8591;DHT22;4333;48.322;14.340;2024-03-08T15:56:02;10.10;1.00
8591;DHT22;4333;48.322;14.340;2024-03-08T15:58:33;10.10;1.00
8591;DHT22;4333;48.322;14.340;2024-03-08T16:01:03;10.10;1.00
8591;DHT22;4333;48.322;14.340;2024-03-08T16:03:32;10.00;1.00
8591;DHT22;4333;48.322;14.340;2024-03-08T16:05:59;9.90;1.00
8591;DHT22;4333;48.322;14.340;2024-03-08T16:08:30;9.90;1.00
8591;DHT22;4333;48.322;14.340;2024-03-08T16:10:57;9.90;1.00
8591;DHT22;4333;48.322;14.340;2024-03-08T16:13:26;9.60;1.00
8591;DHT22;4333;48.322;14.340;2024-03-08T16:15:57;9.60;1.00
8591;DHT22;4333;48.322;14.340;2024-03-08T16:18:25;9.60;1.00
8591;DHT22;4333;48.322;14.340;2024-03-08T16:20:56;9.70;1.00
8591;DHT22;4333;48.322;14.340;2024-03-08T16:23:23;9.70;1.00
8591;DHT22;4333;48.322;14.340;2024-03-08T16:25:49;9.70;1.00
8591;DHT22;4333;48.322;14.340;2024-03-08T16:28:15;9.70;1.00
8591;DHT22;4333;48.322;14.340;2024-03-08T16:30:45;9.50;1.00
8591;DHT22;4333;48.322;14.340;2024-03-08T16:33:20;9.50;1.00
8591;DHT22;4333;48.322;14.340;2024-03-08T16:35:50;9.50;1.00
8591;DHT22;4333;48.322;14.340;2024-03-08T16:38:20;9.40;1.00
8591;DHT22;4333;48.322;14.340;2024-03-08T16:40:50;9.20;1.00
8591;DHT22;4333;48.322;14.340;2024-03-08T16:43:21;9.10;1.00